createdAt,value
2019-02-09T00:00:16.106Z,3.56
2019-02-09T00:02:43.483Z,3.59
2019-02-09T00:05:10.900Z,3.59
2019-02-09T00:07:38.442Z,3.61
2019-02-09T00:10:05.939Z,3.54
2019-02-09T00:12:33.415Z,3.49
2019-02-09T00:15:00.851Z,3.46
2019-02-09T00:17:28.290Z,3.51
2019-02-09T00:19:55.764Z,3.46
2019-02-09T00:22:24.965Z,3.49
2019-02-09T00:24:52.443Z,3.48
2019-02-09T00:27:19.790Z,3.52
2019-02-09T00:29:47.143Z,3.54
2019-02-09T00:32:14.527Z,3.51
2019-02-09T00:34:41.941Z,3.58
2019-02-09T00:37:09.407Z,3.54
2019-02-09T00:39:37.919Z,3.57
2019-02-09T00:42:05.507Z,3.61
2019-02-09T00:44:32.894Z,3.59
2019-02-09T00:47:00.291Z,3.52
2019-02-09T00:49:27.710Z,3.59
2019-02-09T00:51:55.088Z,3.61
2019-02-09T00:54:22.518Z,3.58
2019-02-09T00:56:50.005Z,3.59
2019-02-09T00:59:17.495Z,3.62
2019-02-09T01:01:44.877Z,3.55
2019-02-09T01:04:12.275Z,3.60
2019-02-09T01:06:39.664Z,3.62
2019-02-09T01:09:10.015Z,3.63
2019-02-09T01:11:37.486Z,3.59
2019-02-09T01:14:04.967Z,3.56
2019-02-09T01:16:32.384Z,3.53
2019-02-09T01:19:00.056Z,3.57
2019-02-09T01:21:27.499Z,3.60
2019-02-09T01:23:54.878Z,3.64
2019-02-09T01:26:22.471Z,3.66
2019-02-09T01:28:49.828Z,3.61
2019-02-09T01:31:19.054Z,3.66
2019-02-09T01:33:46.547Z,3.71
2019-02-09T01:36:13.923Z,3.71
2019-02-09T01:38:41.281Z,3.78
2019-02-09T01:41:08.665Z,3.74
2019-02-09T01:43:36.117Z,3.72
2019-02-09T01:46:03.572Z,3.77
2019-02-09T01:48:30.995Z,3.75
2019-02-09T01:50:58.414Z,3.75
2019-02-09T01:53:25.818Z,3.77
2019-02-09T01:55:53.187Z,3.78
2019-02-09T01:58:20.594Z,3.77
2019-02-09T02:00:48.042Z,3.78
2019-02-09T02:03:15.401Z,3.74
2019-02-09T02:05:42.994Z,3.84
2019-02-09T02:08:12.572Z,3.90
2019-02-09T02:10:51.078Z,3.92
2019-02-09T02:13:18.483Z,3.98
2019-02-09T02:15:45.871Z,4.08
2019-02-09T02:18:13.270Z,4.15
2019-02-09T02:20:40.861Z,4.30
2019-02-09T02:23:08.226Z,4.43
2019-02-09T02:25:35.698Z,4.61
2019-02-09T02:28:03.272Z,4.84
2019-02-09T02:30:34.308Z,4.92
2019-02-09T02:33:01.661Z,5.09
2019-02-09T02:35:29.422Z,5.29
2019-02-09T02:37:57.083Z,5.43
2019-02-09T02:40:24.871Z,5.58
2019-02-09T02:42:52.230Z,5.64
2019-02-09T02:45:19.716Z,5.69
2019-02-09T02:47:49.014Z,5.72
2019-02-09T02:50:17.055Z,5.82
2019-02-09T02:52:44.446Z,5.80
2019-02-09T02:55:12.859Z,5.83
2019-02-09T02:57:40.335Z,5.89
2019-02-09T03:00:09.523Z,5.96
2019-02-09T03:02:36.876Z,5.93
2019-02-09T03:05:04.869Z,5.93
2019-02-09T03:07:32.258Z,5.92
2019-02-09T03:09:59.616Z,5.94
2019-02-09T03:12:27.078Z,5.87
2019-02-09T03:14:54.467Z,5.86
2019-02-09T03:17:21.906Z,5.80
2019-02-09T03:19:49.294Z,5.83
2019-02-09T03:22:16.639Z,5.80
2019-02-09T03:24:44.001Z,5.78
2019-02-09T03:27:11.885Z,5.70
2019-02-09T03:29:39.247Z,5.68
2019-02-09T03:32:06.605Z,5.61
2019-02-09T03:34:34.163Z,5.56
2019-02-09T03:37:01.670Z,5.56
2019-02-09T03:39:29.083Z,5.51
2019-02-09T03:41:56.447Z,5.51
2019-02-09T03:44:23.902Z,5.52
2019-02-09T03:46:51.263Z,5.50
2019-02-09T03:49:18.630Z,5.43
2019-02-09T03:51:46.046Z,5.32
2019-02-09T03:54:13.406Z,5.30
2019-02-09T03:56:40.885Z,5.18
2019-02-09T03:59:08.264Z,5.10
2019-02-09T04:01:35.843Z,5.04
2019-02-09T04:04:03.466Z,5.00
2019-02-09T04:06:31.128Z,4.96
2019-02-09T04:08:58.467Z,4.89
2019-02-09T04:11:25.868Z,4.79
2019-02-09T04:13:53.227Z,4.77
2019-02-09T04:16:20.804Z,4.77
2019-02-09T04:18:49.281Z,4.71
2019-02-09T04:21:16.629Z,4.68
2019-02-09T04:23:44.001Z,4.80
2019-02-09T04:26:11.373Z,4.77
2019-02-09T04:28:38.843Z,4.67
2019-02-09T04:31:06.959Z,4.73
2019-02-09T04:33:34.546Z,4.66
2019-02-09T04:36:01.924Z,4.71
2019-02-09T04:38:29.615Z,4.75
2019-02-09T04:40:57.005Z,4.67
2019-02-09T04:43:24.417Z,4.69
2019-02-09T04:45:51.888Z,4.71
2019-02-09T04:48:22.215Z,4.84
2019-02-09T04:50:49.620Z,4.85
2019-02-09T04:53:17.099Z,4.86
2019-02-09T04:55:44.467Z,4.82
2019-02-09T04:58:11.891Z,4.83
2019-02-09T05:00:39.242Z,4.86
2019-02-09T05:03:06.703Z,4.88
2019-02-09T05:05:34.140Z,4.84
2019-02-09T05:08:01.939Z,4.80
2019-02-09T05:10:29.280Z,4.76
2019-02-09T05:12:56.675Z,4.74
2019-02-09T05:15:24.249Z,4.70
2019-02-09T05:17:51.610Z,4.66
2019-02-09T05:20:20.702Z,4.64
2019-02-09T05:22:48.220Z,4.60
2019-02-09T05:25:15.674Z,4.67
2019-02-09T05:27:46.089Z,4.65
2019-02-09T05:30:16.460Z,4.67
2019-02-09T05:32:43.912Z,4.71
2019-02-09T05:35:13.490Z,4.69
2019-02-09T05:37:40.877Z,4.73
2019-02-09T05:40:13.350Z,4.80
2019-02-09T05:42:40.841Z,4.69
2019-02-09T05:45:17.190Z,4.69
2019-02-09T05:47:44.685Z,4.78
2019-02-09T05:50:12.735Z,4.82
2019-02-09T05:52:40.116Z,4.83
2019-02-09T05:55:08.106Z,4.84
2019-02-09T05:57:35.618Z,4.85
2019-02-09T06:00:05.090Z,4.73
2019-02-09T06:02:32.879Z,4.80
2019-02-09T06:05:03.478Z,4.74
2019-02-09T06:07:32.017Z,4.70
2019-02-09T06:09:59.421Z,4.68
2019-02-09T06:12:26.785Z,4.61
2019-02-09T06:14:54.153Z,4.58
2019-02-09T06:17:21.527Z,4.55
2019-02-09T06:19:48.912Z,4.48
2019-02-09T06:22:16.373Z,4.51
2019-02-09T06:24:43.792Z,4.48
2019-02-09T06:27:11.155Z,4.49
2019-02-09T06:29:41.081Z,4.53
2019-02-09T06:32:08.551Z,4.52
2019-02-09T06:34:36.301Z,4.54
2019-02-09T06:37:03.867Z,4.54
2019-02-09T06:39:31.239Z,4.63
2019-02-09T06:41:58.631Z,4.65
2019-02-09T06:44:25.999Z,4.71
2019-02-09T06:46:53.367Z,4.78
2019-02-09T06:49:20.801Z,4.85
2019-02-09T06:51:48.267Z,4.92
2019-02-09T06:54:15.665Z,4.96
2019-02-09T06:56:43.104Z,5.03
2019-02-09T06:59:10.529Z,5.13
2019-02-09T07:01:37.930Z,5.25
2019-02-09T07:04:05.405Z,5.30
2019-02-09T07:06:32.745Z,5.36
2019-02-09T07:09:00.565Z,5.40
2019-02-09T07:11:27.953Z,5.48
2019-02-09T07:13:55.358Z,5.60
2019-02-09T07:16:22.998Z,5.62
2019-02-09T07:18:50.383Z,5.72
2019-02-09T07:21:17.876Z,5.77
2019-02-09T07:23:45.378Z,5.85
2019-02-09T07:26:12.911Z,5.87
2019-02-09T07:28:40.351Z,5.92
2019-02-09T07:31:07.703Z,5.91
2019-02-09T07:33:35.116Z,5.96
2019-02-09T07:36:02.601Z,5.99
2019-02-09T07:38:30.003Z,6.06
2019-02-09T07:40:57.500Z,6.12
2019-02-09T07:43:24.898Z,6.37
2019-02-09T07:45:52.287Z,6.70
2019-02-09T07:48:19.723Z,6.88
2019-02-09T07:50:47.104Z,6.74
2019-02-09T07:53:14.482Z,6.66
2019-02-09T07:55:41.900Z,6.70
2019-02-09T07:58:09.328Z,6.92
2019-02-09T08:00:36.727Z,7.22
2019-02-09T08:03:06.443Z,7.48
2019-02-09T08:05:33.900Z,7.49
2019-02-09T08:08:01.291Z,7.55
2019-02-09T08:10:32.453Z,7.43
2019-02-09T08:13:00.431Z,7.40
2019-02-09T08:15:28.262Z,7.23
2019-02-09T08:17:55.653Z,7.25
2019-02-09T08:20:23.635Z,7.59
2019-02-09T08:22:51.359Z,7.66
2019-02-09T08:25:19.938Z,7.75
2019-02-09T08:27:47.434Z,8.03
2019-02-09T08:30:16.343Z,8.48
2019-02-09T08:32:43.724Z,9.64
2019-02-09T08:35:11.128Z,10.12
2019-02-09T08:37:39.882Z,9.97
2019-02-09T08:40:07.748Z,10.19
2019-02-09T08:42:35.358Z,10.77
2019-02-09T08:45:03.648Z,11.10
2019-02-09T08:47:31.028Z,11.84
2019-02-09T08:49:58.527Z,12.26
2019-02-09T08:52:26.016Z,13.12
2019-02-09T08:54:54.493Z,12.97
2019-02-09T08:57:23.786Z,12.39
2019-02-09T08:59:51.187Z,13.44
2019-02-09T09:02:20.623Z,14.89
2019-02-09T09:04:47.958Z,15.55
2019-02-09T09:07:15.340Z,16.64
2019-02-09T09:09:42.839Z,17.29
2019-02-09T09:12:10.413Z,17.50
2019-02-09T09:14:37.948Z,16.42
2019-02-09T09:17:05.374Z,14.73
2019-02-09T09:19:32.803Z,13.44
2019-02-09T09:22:00.274Z,12.77
2019-02-09T09:24:27.646Z,11.70
2019-02-09T09:26:55.094Z,10.73
2019-02-09T09:29:25.686Z,10.27
2019-02-09T09:31:53.158Z,9.92
2019-02-09T09:34:20.606Z,9.38
2019-02-09T09:36:48.470Z,9.36
2019-02-09T09:39:15.875Z,9.23
2019-02-09T09:41:43.356Z,9.48
2019-02-09T09:44:10.747Z,10.13
2019-02-09T09:46:38.146Z,10.89
2019-02-09T09:49:05.981Z,12.39
2019-02-09T09:51:33.449Z,14.77
2019-02-09T09:54:00.968Z,15.73
2019-02-09T09:56:28.383Z,15.64
2019-02-09T09:58:55.875Z,15.39
2019-02-09T10:01:23.321Z,15.09
2019-02-09T10:03:52.098Z,14.00
2019-02-09T10:06:19.745Z,11.84
2019-02-09T10:08:47.254Z,10.32
2019-02-09T10:11:14.675Z,9.55
2019-02-09T10:13:42.147Z,8.94
2019-02-09T10:16:09.645Z,8.26
2019-02-09T10:18:37.059Z,8.01
2019-02-09T10:21:04.480Z,7.83
2019-02-09T10:23:31.978Z,7.74
2019-02-09T10:25:59.383Z,7.73
2019-02-09T10:28:26.795Z,7.78
2019-02-09T10:30:54.173Z,7.41
2019-02-09T10:33:21.552Z,7.30
2019-02-09T10:35:48.975Z,7.28
2019-02-09T10:38:16.504Z,7.23
2019-02-09T10:40:44.047Z,7.26
2019-02-09T10:43:11.146Z,7.22
2019-02-09T10:45:38.683Z,7.91
2019-02-09T10:48:06.924Z,9.09
2019-02-09T10:50:35.539Z,10.55
2019-02-09T10:53:03.151Z,10.98
2019-02-09T10:55:30.526Z,11.58
2019-02-09T10:57:58.016Z,12.32
2019-02-09T11:00:30.025Z,12.92
2019-02-09T11:02:57.725Z,12.93
2019-02-09T11:05:25.473Z,12.44
2019-02-09T11:07:52.949Z,12.42
2019-02-09T11:10:20.963Z,12.18
2019-02-09T11:12:48.371Z,11.63
2019-02-09T11:15:17.400Z,11.33
2019-02-09T11:17:44.782Z,10.47
2019-02-09T11:20:13.358Z,10.48
2019-02-09T11:22:42.189Z,11.19
2019-02-09T11:25:10.091Z,11.07
2019-02-09T11:27:37.555Z,10.74
2019-02-09T11:30:05.713Z,10.32
2019-02-09T11:32:33.086Z,10.51
2019-02-09T11:35:01.293Z,10.16
2019-02-09T11:37:28.825Z,9.66
2019-02-09T11:39:56.345Z,9.52
2019-02-09T11:42:23.844Z,8.94
2019-02-09T11:44:51.358Z,8.73
2019-02-09T11:47:18.864Z,8.44
2019-02-09T11:49:46.274Z,8.59
2019-02-09T11:52:13.707Z,8.63
2019-02-09T11:54:41.152Z,8.59
2019-02-09T11:57:08.535Z,8.60
2019-02-09T11:59:35.936Z,8.74
2019-02-09T12:02:03.638Z,9.05
2019-02-09T12:04:31.102Z,9.34
2019-02-09T12:06:58.705Z,9.49
2019-02-09T12:09:26.108Z,9.18
2019-02-09T12:11:53.635Z,8.83
2019-02-09T12:14:21.016Z,8.80
2019-02-09T12:16:48.420Z,8.67
2019-02-09T12:19:15.850Z,8.74
2019-02-09T12:21:43.214Z,8.54
2019-02-09T12:24:12.075Z,8.61
2019-02-09T12:26:39.594Z,8.66
2019-02-09T12:29:07.008Z,8.55
2019-02-09T12:31:34.390Z,8.64
2019-02-09T12:34:01.810Z,8.71
2019-02-09T12:36:29.231Z,8.72
2019-02-09T12:38:56.595Z,8.72
2019-02-09T12:41:24.013Z,8.82
2019-02-09T12:43:51.532Z,8.66
2019-02-09T12:46:19.031Z,8.77
2019-02-09T12:48:46.499Z,8.80
2019-02-09T12:51:13.874Z,8.68
2019-02-09T12:53:41.373Z,8.85
2019-02-09T12:56:08.805Z,8.92
2019-02-09T12:58:36.211Z,8.95
2019-02-09T13:01:04.130Z,8.90
2019-02-09T13:03:31.660Z,8.97
2019-02-09T13:05:59.153Z,8.92
2019-02-09T13:08:26.562Z,9.01
2019-02-09T13:10:53.968Z,9.00
2019-02-09T13:13:21.424Z,8.96
2019-02-09T13:15:48.935Z,9.03
2019-02-09T13:18:16.334Z,9.22
2019-02-09T13:20:43.734Z,9.33
2019-02-09T13:23:11.180Z,9.10
2019-02-09T13:25:38.689Z,9.23
2019-02-09T13:28:06.167Z,9.20
2019-02-09T13:30:33.754Z,9.25
2019-02-09T13:33:01.174Z,9.22
2019-02-09T13:35:28.645Z,9.24
2019-02-09T13:37:56.099Z,9.22
2019-02-09T13:40:23.712Z,9.15
2019-02-09T13:42:51.216Z,9.11
2019-02-09T13:45:23.186Z,9.06
2019-02-09T13:47:50.575Z,8.97
2019-02-09T13:50:18.079Z,8.88
2019-02-09T13:52:45.495Z,8.80
2019-02-09T13:55:13.012Z,8.79
2019-02-09T13:57:40.489Z,8.66
2019-02-09T14:00:09.996Z,8.81
2019-02-09T14:02:37.377Z,8.83
2019-02-09T14:05:04.987Z,8.94
2019-02-09T14:07:32.354Z,9.04
2019-02-09T14:09:59.730Z,9.03
2019-02-09T14:12:27.130Z,8.87
2019-02-09T14:14:54.518Z,8.89
2019-02-09T14:17:22.080Z,8.99
2019-02-09T14:19:49.554Z,8.96
2019-02-09T14:22:17.006Z,8.75
2019-02-09T14:24:44.422Z,8.82
2019-02-09T14:27:11.828Z,8.69
2019-02-09T14:29:39.291Z,8.64
2019-02-09T14:32:06.718Z,8.71
2019-02-09T14:34:34.162Z,8.52
2019-02-09T14:37:01.535Z,8.56
2019-02-09T14:39:28.930Z,8.52
2019-02-09T14:41:56.340Z,8.54
2019-02-09T14:44:23.768Z,8.48
2019-02-09T14:46:51.167Z,8.49
2019-02-09T14:49:18.608Z,8.53
2019-02-09T14:51:46.009Z,8.45
2019-02-09T14:54:13.399Z,8.48
2019-02-09T14:56:40.910Z,8.47
2019-02-09T14:59:08.387Z,8.44
2019-02-09T15:01:35.800Z,8.42
2019-02-09T15:04:03.635Z,8.33
2019-02-09T15:06:31.103Z,8.31
2019-02-09T15:08:58.540Z,8.25
2019-02-09T15:11:25.955Z,8.28
2019-02-09T15:13:53.691Z,8.28
2019-02-09T15:16:23.319Z,8.31
2019-02-09T15:18:50.827Z,8.10
2019-02-09T15:21:18.318Z,8.14
2019-02-09T15:23:45.727Z,8.13
2019-02-09T15:26:13.237Z,8.07
2019-02-09T15:28:40.916Z,7.97
2019-02-09T15:31:08.325Z,8.02
2019-02-09T15:33:35.686Z,7.96
2019-02-09T15:36:03.215Z,7.90
2019-02-09T15:38:30.598Z,7.82
2019-02-09T15:40:58.027Z,7.75
2019-02-09T15:43:25.442Z,7.72
2019-02-09T15:45:52.818Z,7.76
2019-02-09T15:48:20.252Z,7.72
2019-02-09T15:50:47.643Z,7.73
2019-02-09T15:53:15.031Z,7.68
2019-02-09T15:55:42.572Z,7.73
2019-02-09T15:58:09.929Z,7.68
2019-02-09T16:00:37.335Z,7.66
2019-02-09T16:03:04.762Z,7.67
2019-02-09T16:05:32.255Z,7.61
2019-02-09T16:07:59.682Z,7.56
2019-02-09T16:10:27.346Z,7.51
2019-02-09T16:12:54.751Z,7.41
2019-02-09T16:15:23.011Z,7.31
2019-02-09T16:17:50.418Z,7.32
2019-02-09T16:20:18.686Z,7.27
2019-02-09T16:22:46.510Z,7.24
2019-02-09T16:25:14.667Z,7.15
2019-02-09T16:27:42.075Z,7.05
2019-02-09T16:30:18.288Z,7.01
2019-02-09T16:32:41.320Z,7.09
2019-02-09T16:35:09.963Z,7.03
2019-02-09T16:37:37.400Z,7.05
2019-02-09T16:40:05.820Z,7.08
2019-02-09T16:42:33.214Z,7.08
2019-02-09T16:45:00.787Z,7.02
2019-02-09T16:47:28.301Z,6.95
2019-02-09T16:49:55.971Z,6.93
2019-02-09T16:52:23.335Z,6.89
2019-02-09T16:54:50.728Z,6.91
2019-02-09T16:57:18.163Z,6.86
2019-02-09T16:59:45.655Z,6.86
2019-02-09T17:02:13.218Z,6.89
2019-02-09T17:04:40.727Z,6.88
2019-02-09T17:07:08.346Z,6.84
2019-02-09T17:09:35.749Z,6.81
2019-02-09T17:12:03.537Z,6.75
2019-02-09T17:14:31.239Z,6.73
2019-02-09T17:16:58.716Z,6.61
2019-02-09T17:19:26.201Z,6.63
2019-02-09T17:21:53.585Z,6.62
2019-02-09T17:24:21.139Z,6.62
2019-02-09T17:26:48.637Z,6.66
2019-02-09T17:29:16.044Z,6.62
2019-02-09T17:31:43.508Z,6.62
2019-02-09T17:34:10.921Z,6.59
2019-02-09T17:36:38.430Z,6.54
2019-02-09T17:39:06.670Z,6.52
2019-02-09T17:41:34.080Z,6.51
2019-02-09T17:44:01.573Z,6.48
2019-02-09T17:46:29.074Z,6.48
2019-02-09T17:48:56.579Z,6.47
2019-02-09T17:51:24.098Z,6.47
2019-02-09T17:53:51.511Z,6.46
2019-02-09T17:56:18.987Z,6.43
2019-02-09T17:58:46.545Z,6.43
2019-02-09T18:01:14.557Z,6.43
2019-02-09T18:03:41.940Z,6.39
2019-02-09T18:06:09.384Z,6.42
2019-02-09T18:08:36.757Z,6.37
2019-02-09T18:11:04.409Z,6.27
2019-02-09T18:13:31.907Z,6.29
2019-02-09T18:15:59.321Z,6.27
2019-02-09T18:18:26.757Z,6.19
2019-02-09T18:20:54.252Z,6.20
2019-02-09T18:23:21.641Z,6.12
2019-02-09T18:25:49.104Z,6.07
2019-02-09T18:28:16.611Z,6.02
2019-02-09T18:30:44.136Z,6.01
2019-02-09T18:33:11.535Z,5.98
2019-02-09T18:35:39.058Z,5.91
2019-02-09T18:38:06.445Z,5.91
2019-02-09T18:40:34.046Z,5.84
2019-02-09T18:43:01.493Z,5.76
2019-02-09T18:45:29.029Z,5.77
2019-02-09T18:47:56.723Z,5.66
2019-02-09T18:50:24.526Z,5.70
2019-02-09T18:52:51.914Z,5.67
2019-02-09T18:55:20.012Z,5.66
2019-02-09T18:57:47.479Z,5.73
2019-02-09T19:00:18.979Z,5.67
2019-02-09T19:02:46.494Z,5.77
2019-02-09T19:05:14.022Z,5.83
2019-02-09T19:07:41.502Z,5.77
2019-02-09T19:10:10.688Z,5.77
2019-02-09T19:12:38.247Z,5.73
2019-02-09T19:15:06.134Z,5.70
2019-02-09T19:17:33.563Z,5.71
2019-02-09T19:20:01.038Z,5.67
2019-02-09T19:22:28.459Z,5.65
2019-02-09T19:24:55.950Z,5.58
2019-02-09T19:27:23.333Z,5.52
2019-02-09T19:29:50.760Z,5.58
2019-02-09T19:32:18.160Z,5.52
2019-02-09T19:34:45.747Z,5.58
2019-02-09T19:37:14.829Z,5.56
2019-02-09T19:39:42.335Z,5.53
2019-02-09T19:42:09.873Z,5.60
2019-02-09T19:44:37.332Z,5.58
2019-02-09T19:47:04.843Z,5.59
2019-02-09T19:49:32.677Z,5.61
2019-02-09T19:52:03.353Z,5.60
2019-02-09T19:54:30.835Z,5.53
2019-02-09T19:56:58.267Z,5.56
2019-02-09T19:59:27.375Z,5.52
2019-02-09T20:01:54.750Z,5.57
2019-02-09T20:04:22.174Z,5.62
2019-02-09T20:06:50.018Z,5.55
2019-02-09T20:09:17.502Z,5.61
2019-02-09T20:11:45.025Z,5.55
2019-02-09T20:14:13.797Z,5.56
2019-02-09T20:16:41.268Z,5.58
2019-02-09T20:19:08.711Z,5.57
2019-02-09T20:21:36.144Z,5.54
2019-02-09T20:24:03.799Z,5.54
2019-02-09T20:26:31.328Z,5.53
2019-02-09T20:28:58.778Z,5.53
2019-02-09T20:31:26.326Z,5.59
2019-02-09T20:33:53.711Z,5.53
2019-02-09T20:36:21.213Z,5.52
2019-02-09T20:38:48.762Z,5.51
2019-02-09T20:41:16.412Z,5.54
2019-02-09T20:43:43.957Z,5.51
2019-02-09T20:46:11.461Z,5.52
2019-02-09T20:48:38.970Z,5.49
2019-02-09T20:51:06.612Z,5.49
2019-02-09T20:53:34.127Z,5.49
2019-02-09T20:56:01.589Z,5.51
2019-02-09T20:58:29.168Z,5.47
2019-02-09T21:00:56.768Z,5.44
2019-02-09T21:03:24.253Z,5.40
2019-02-09T21:05:51.797Z,5.45
2019-02-09T21:08:19.443Z,5.38
2019-02-09T21:10:46.972Z,5.35
2019-02-09T21:13:14.521Z,5.40
2019-02-09T21:15:42.076Z,5.43
2019-02-09T21:18:09.544Z,5.44
2019-02-09T21:20:36.943Z,5.39
2019-02-09T21:23:04.689Z,5.37
2019-02-09T21:25:33.089Z,5.26
2019-02-09T21:28:23.999Z,5.35
2019-02-09T21:30:51.499Z,5.35
2019-02-09T21:33:19.003Z,5.30
2019-02-09T21:35:46.557Z,5.29
2019-02-09T21:38:14.101Z,5.25
2019-02-09T21:40:41.622Z,5.26
2019-02-09T21:43:09.160Z,5.24
2019-02-09T21:45:44.510Z,5.21
2019-02-09T21:48:05.990Z,5.18
2019-02-09T21:50:34.051Z,5.17
2019-02-09T21:53:01.603Z,5.18
2019-02-09T21:55:29.102Z,5.25
2019-02-09T21:57:56.677Z,5.19
2019-02-09T22:00:34.020Z,5.18
2019-02-09T22:03:01.645Z,5.19
2019-02-09T22:05:29.348Z,5.07
2019-02-09T22:07:56.813Z,5.11
2019-02-09T22:10:29.406Z,5.20
2019-02-09T22:12:54.030Z,5.17
2019-02-09T22:15:22.219Z,5.15
2019-02-09T22:17:49.658Z,5.15
2019-02-09T22:20:17.168Z,5.10
2019-02-09T22:22:44.571Z,5.07
2019-02-09T22:25:15.657Z,5.14
2019-02-09T22:27:43.424Z,5.12
2019-02-09T22:30:11.702Z,5.08
2019-02-09T22:32:42.207Z,5.10
2019-02-09T22:35:09.872Z,5.09
2019-02-09T22:37:37.571Z,5.05
2019-02-09T22:40:07.684Z,5.06
2019-02-09T22:42:35.187Z,5.06
2019-02-09T22:45:03.632Z,5.08
2019-02-09T22:47:31.252Z,5.08
2019-02-09T22:49:58.797Z,5.10
2019-02-09T22:52:26.370Z,5.10
2019-02-09T22:54:54.719Z,5.05
2019-02-09T22:57:22.655Z,5.01
2019-02-09T22:59:51.258Z,5.06
2019-02-09T23:02:19.003Z,5.08
2019-02-09T23:04:58.615Z,5.05
2019-02-09T23:07:27.791Z,5.10
2019-02-09T23:09:56.021Z,5.20
2019-02-09T23:12:23.588Z,5.20
2019-02-09T23:14:51.102Z,5.21
2019-02-09T23:17:18.648Z,5.19
2019-02-09T23:19:46.606Z,5.19
2019-02-09T23:22:14.651Z,5.28
2019-02-09T23:24:42.137Z,5.28
2019-02-09T23:27:09.790Z,5.24
2019-02-09T23:29:37.263Z,5.31
2019-02-09T23:32:05.191Z,5.33
2019-02-09T23:34:32.929Z,5.35
2019-02-09T23:37:00.449Z,5.34
2019-02-09T23:39:27.893Z,5.37
2019-02-09T23:41:55.815Z,5.43
2019-02-09T23:44:23.200Z,5.48
2019-02-09T23:46:50.586Z,5.53
2019-02-09T23:49:18.100Z,5.59
2019-02-09T23:51:45.544Z,5.60
2019-02-09T23:54:12.938Z,5.61
2019-02-09T23:56:40.314Z,5.59
2019-02-09T23:59:07.765Z,5.66
